sensor_id;sensor_type;location;lat;lon;timestamp;pressure;altitude;pressure_sealevel;temperature;humidity
20696;BME280;10507;52.754;13.040;2023-04-24T00:01:05;99709.56;;;10.94;100.00
20696;BME280;10507;52.754;13.040;2023-04-24T00:03:35;99722.72;;;10.97;100.00
20696;BME280;10507;52.754;13.040;2023-04-24T00:06:05;99712.03;;;10.97;100.00
20696;BME280;10507;52.754;13.040;2023-04-24T00:08:34;99719.31;;;10.95;100.00
20696;BME280;10507;52.754;13.040;2023-04-24T00:11:02;99708.63;;;10.95;100.00
20696;BME280;10507;52.754;13.040;2023-04-24T00:13:30;99714.72;;;10.97;100.00
20696;BME280;10507;52.754;13.040;2023-04-24T00:15:58;99715.66;;;10.96;100.00
20696;BME280;10507;52.754;13.040;2023-04-24T00:18:26;99724.44;;;10.98;100.00
20696;BME280;10507;52.754;13.040;2023-04-24T00:20:56;99718.44;;;10.94;100.00
20696;BME280;10507;52.754;13.040;2023-04-24T00:23:24;99708.81;;;10.92;100.00
20696;BME280;10507;52.754;13.040;2023-04-24T00:25:52;99701.97;;;10.88;100.00
20696;BME280;10507;52.754;13.040;2023-04-24T00:28:20;99709.88;;;10.89;100.00
20696;BME280;10507;52.754;13.040;2023-04-24T00:30:48;99707.50;;;10.85;100.00
20696;BME280;10507;52.754;13.040;2023-04-24T00:33:18;99710.31;;;10.83;100.00
20696;BME280;10507;52.754;13.040;2023-04-24T00:35:46;99713.91;;;10.82;100.00
20696;BME280;10507;52.754;13.040;2023-04-24T00:38:15;99713.06;;;10.81;100.00
20696;BME280;10507;52.754;13.040;2023-04-24T00:40:45;99711.31;;;10.80;100.00
20696;BME280;10507;52.754;13.040;2023-04-24T00:43:14;99705.13;;;10.80;100.00
20696;BME280;10507;52.754;13.040;2023-04-24T00:45:42;99712.97;;;10.83;100.00
20696;BME280;10507;52.754;13.040;2023-04-24T00:48:11;99710.19;;;10.85;100.00
20696;BME280;10507;52.754;13.040;2023-04-24T00:50:39;99705.91;;;10.82;100.00
20696;BME280;10507;52.754;13.040;2023-04-24T00:53:07;99697.78;;;10.84;100.00
20696;BME280;10507;52.754;13.040;2023-04-24T00:55:36;99699.81;;;10.80;100.00
20696;BME280;10507;52.754;13.040;2023-04-24T00:58:04;99690.84;;;10.81;100.00
20696;BME280;10507;52.754;13.040;2023-04-24T01:00:32;99689.97;;;10.80;100.00
20696;BME280;10507;52.754;13.040;2023-04-24T01:03:01;99689.97;;;10.80;100.00
20696;BME280;10507;52.754;13.040;2023-04-24T01:05:32;99698.09;;;10.79;100.00
20696;BME280;10507;52.754;13.040;2023-04-24T01:08:01;99699.81;;;10.80;100.00
20696;BME280;10507;52.754;13.040;2023-04-24T01:10:29;99700.66;;;10.80;100.00
20696;BME280;10507;52.754;13.040;2023-04-24T01:13:00;99711.16;;;10.84;100.00
20696;BME280;10507;52.754;13.040;2023-04-24T01:15:28;99727.56;;;10.77;100.00
20696;BME280;10507;52.754;13.040;2023-04-24T01:17:56;99731.22;;;10.76;100.00
20696;BME280;10507;52.754;13.040;2023-04-24T01:20:24;99725.88;;;10.76;100.00
20696;BME280;10507;52.754;13.040;2023-04-24T01:22:55;99735.03;;;10.72;100.00
20696;BME280;10507;52.754;13.040;2023-04-24T01:25:24;99748.06;;;10.77;100.00
20696;BME280;10507;52.754;13.040;2023-04-24T01:27:53;99747.22;;;10.76;100.00
20696;BME280;10507;52.754;13.040;2023-04-24T01:30:22;99753.31;;;10.78;100.00
20696;BME280;10507;52.754;13.040;2023-04-24T01:32:50;99754.81;;;10.82;100.00
20696;BME280;10507;52.754;13.040;2023-04-24T01:35:19;99769.91;;;10.84;100.00
20696;BME280;10507;52.754;13.040;2023-04-24T01:37:47;99771.91;;;10.80;100.00
20696;BME280;10507;52.754;13.040;2023-04-24T01:40:16;99777.22;;;10.80;100.00
20696;BME280;10507;52.754;13.040;2023-04-24T01:42:45;99781.72;;;10.79;100.00
20696;BME280;10507;52.754;13.040;2023-04-24T01:45:12;99774.00;;;10.75;100.00
20696;BME280;10507;52.754;13.040;2023-04-24T01:47:40;99787.44;;;10.73;100.00
20696;BME280;10507;52.754;13.040;2023-04-24T01:50:09;99785.00;;;10.70;100.00
20696;BME280;10507;52.754;13.040;2023-04-24T01:52:37;99790.97;;;10.74;100.00
20696;BME280;10507;52.754;13.040;2023-04-24T01:55:06;99793.56;;;10.75;100.00
20696;BME280;10507;52.754;13.040;2023-04-24T01:57:36;99781.06;;;10.76;100.00
20696;BME280;10507;52.754;13.040;2023-04-24T02:00:05;99772.50;;;10.71;100.00
20696;BME280;10507;52.754;13.040;2023-04-24T02:02:33;99771.94;;;10.66;100.00
20696;BME280;10507;52.754;13.040;2023-04-24T02:05:01;99791.56;;;10.65;100.00
20696;BME280;10507;52.754;13.040;2023-04-24T02:07:29;99795.84;;;10.67;100.00
20696;BME280;10507;52.754;13.040;2023-04-24T02:09:57;99795.00;;;10.67;100.00
20696;BME280;10507;52.754;13.040;2023-04-24T02:12:25;99813.59;;;10.68;100.00
20696;BME280;10507;52.754;13.040;2023-04-24T02:14:55;99804.75;;;10.68;100.00
20696;BME280;10507;52.754;13.040;2023-04-24T02:17:22;99812.91;;;10.65;100.00
20696;BME280;10507;52.754;13.040;2023-04-24T02:19:50;99822.75;;;10.64;100.00
20696;BME280;10507;52.754;13.040;2023-04-24T02:22:18;99821.22;;;10.60;100.00
20696;BME280;10507;52.754;13.040;2023-04-24T02:24:46;99831.91;;;10.60;100.00
20696;BME280;10507;52.754;13.040;2023-04-24T02:27:14;99832.78;;;10.60;100.00
20696;BME280;10507;52.754;13.040;2023-04-24T02:29:42;99833.63;;;10.61;100.00
20696;BME280;10507;52.754;13.040;2023-04-24T02:32:12;99838.78;;;10.64;100.00
20696;BME280;10507;52.754;13.040;2023-04-24T02:34:42;99832.50;;;10.65;100.00
20696;BME280;10507;52.754;13.040;2023-04-24T02:37:10;99831.53;;;10.66;100.00
20696;BME280;10507;52.754;13.040;2023-04-24T02:39:37;99843.91;;;10.67;100.00
20696;BME280;10507;52.754;13.040;2023-04-24T02:42:06;99850.59;;;10.74;100.00
20696;BME280;10507;52.754;13.040;2023-04-24T02:44:34;99851.22;;;10.78;100.00
20696;BME280;10507;52.754;13.040;2023-04-24T02:47:02;99854.38;;;10.85;100.00
20696;BME280;10507;52.754;13.040;2023-04-24T02:49:31;99844.44;;;10.87;100.00
20696;BME280;10507;52.754;13.040;2023-04-24T02:51:59;99828.13;;;10.91;100.00
20696;BME280;10507;52.754;13.040;2023-04-24T02:54:27;99819.06;;;10.94;100.00
20696;BME280;10507;52.754;13.040;2023-04-24T02:56:55;99809.25;;;10.94;100.00
20696;BME280;10507;52.754;13.040;2023-04-24T02:59:23;99806.47;;;10.96;100.00
20696;BME280;10507;52.754;13.040;2023-04-24T03:01:51;99809.72;;;11.01;100.00
20696;BME280;10507;52.754;13.040;2023-04-24T03:04:18;99791.97;;;11.00;100.00
20696;BME280;10507;52.754;13.040;2023-04-24T03:06:48;99805.22;;;11.01;100.00
20696;BME280;10507;52.754;13.040;2023-04-24T03:09:18;99822.09;;;11.02;100.00
20696;BME280;10507;52.754;13.040;2023-04-24T03:11:46;99835.25;;;11.05;100.00
20696;BME280;10507;52.754;13.040;2023-04-24T03:14:15;99840.09;;;11.13;100.00
20696;BME280;10507;52.754;13.040;2023-04-24T03:16:43;99821.09;;;11.17;100.00
20696;BME280;10507;52.754;13.040;2023-04-24T03:19:11;99820.25;;;11.17;100.00
20696;BME280;10507;52.754;13.040;2023-04-24T03:21:39;99811.94;;;11.21;100.00
20696;BME280;10507;52.754;13.040;2023-04-24T03:24:08;99799.50;;;11.20;100.00
20696;BME280;10507;52.754;13.040;2023-04-24T03:26:37;99797.69;;;11.21;100.00
20696;BME280;10507;52.754;13.040;2023-04-24T03:29:04;99809.03;;;11.24;100.00
20696;BME280;10507;52.754;13.040;2023-04-24T03:31:32;99802.63;;;11.27;100.00
20696;BME280;10507;52.754;13.040;2023-04-24T03:34:00;99799.09;;;11.27;100.00
20696;BME280;10507;52.754;13.040;2023-04-24T03:36:28;99804.38;;;11.28;100.00
20696;BME280;10507;52.754;13.040;2023-04-24T03:38:59;99798.13;;;11.28;100.00
20696;BME280;10507;52.754;13.040;2023-04-24T03:41:28;99802.53;;;11.29;100.00
20696;BME280;10507;52.754;13.040;2023-04-24T03:43:57;99813.22;;;11.29;100.00
20696;BME280;10507;52.754;13.040;2023-04-24T03:46:25;99805.31;;;11.27;100.00
20696;BME280;10507;52.754;13.040;2023-04-24T03:48:53;99816.44;;;11.34;100.00
20696;BME280;10507;52.754;13.040;2023-04-24T03:51:21;99814.63;;;11.34;100.00
20696;BME280;10507;52.754;13.040;2023-04-24T03:53:49;99813.78;;;11.34;100.00
20696;BME280;10507;52.754;13.040;2023-04-24T03:56:17;99804.91;;;11.33;100.00
20696;BME280;10507;52.754;13.040;2023-04-24T03:58:46;99818.06;;;11.36;100.00
20696;BME280;10507;52.754;13.040;2023-04-24T04:01:14;99814.22;;;11.40;100.00
20696;BME280;10507;52.754;13.040;2023-04-24T04:03:42;99808.03;;;11.40;100.00
20696;BME280;10507;52.754;13.040;2023-04-24T04:06:10;99807.94;;;11.41;100.00
20696;BME280;10507;52.754;13.040;2023-04-24T04:08:39;99818.31;;;11.46;100.00
20696;BME280;10507;52.754;13.040;2023-04-24T04:11:07;99796.81;;;11.48;100.00
20696;BME280;10507;52.754;13.040;2023-04-24T04:13:35;99787.75;;;11.50;100.00
20696;BME280;10507;52.754;13.040;2023-04-24T04:16:05;99778.97;;;11.48;100.00
20696;BME280;10507;52.754;13.040;2023-04-24T04:18:36;99786.69;;;11.53;100.00
20696;BME280;10507;52.754;13.040;2023-04-24T04:21:04;99791.91;;;11.54;100.00
20696;BME280;10507;52.754;13.040;2023-04-24T04:23:31;99779.50;;;11.53;100.00
20696;BME280;10507;52.754;13.040;2023-04-24T04:25:59;99780.44;;;11.52;100.00
20696;BME280;10507;52.754;13.040;2023-04-24T04:28:27;99761.97;;;11.49;100.00
20696;BME280;10507;52.754;13.040;2023-04-24T04:30:57;99758.75;;;11.44;100.00
20696;BME280;10507;52.754;13.040;2023-04-24T04:33:27;99758.75;;;11.44;100.00
20696;BME280;10507;52.754;13.040;2023-04-24T04:35:55;99760.75;;;11.40;100.00
20696;BME280;10507;52.754;13.040;2023-04-24T04:38:24;99753.59;;;11.41;100.00
20696;BME280;10507;52.754;13.040;2023-04-24T04:40:56;99767.94;;;11.40;100.00
20696;BME280;10507;52.754;13.040;2023-04-24T04:43:24;99785.47;;;11.44;100.00
20696;BME280;10507;52.754;13.040;2023-04-24T04:45:52;99808.16;;;11.51;100.00
20696;BME280;10507;52.754;13.040;2023-04-24T04:48:21;99832.13;;;11.65;100.00
20696;BME280;10507;52.754;13.040;2023-04-24T04:53:41;99845.81;;;12.01;100.00
20696;BME280;10507;52.754;13.040;2023-04-24T04:56:09;99868.81;;;12.42;100.00
20696;BME280;10507;52.754;13.040;2023-04-24T04:58:36;99859.78;;;12.81;100.00
20696;BME280;10507;52.754;13.040;2023-04-24T05:01:04;99802.19;;;13.00;100.00
20696;BME280;10507;52.754;13.040;2023-04-24T05:03:33;99801.53;;;13.33;100.00
20696;BME280;10507;52.754;13.040;2023-04-24T05:06:03;99784.25;;;13.72;100.00
20696;BME280;10507;52.754;13.040;2023-04-24T05:08:31;99633.88;;;13.74;98.89
20696;BME280;10507;52.754;13.040;2023-04-24T05:10:59;99603.28;;;13.77;98.30
20696;BME280;10507;52.754;13.040;2023-04-24T05:13:27;99497.47;;;13.47;97.79
20696;BME280;10507;52.754;13.040;2023-04-24T05:16:06;99532.84;;;13.41;98.49
20696;BME280;10507;52.754;13.040;2023-04-24T05:18:35;99537.47;;;13.39;97.78
20696;BME280;10507;52.754;13.040;2023-04-24T05:21:04;99524.19;;;13.37;97.85
20696;BME280;10507;52.754;13.040;2023-04-24T05:23:32;99536.97;;;13.34;98.68
20696;BME280;10507;52.754;13.040;2023-04-24T05:26:00;99609.13;;;13.59;98.21
20696;BME280;10507;52.754;13.040;2023-04-24T05:28:32;99594.97;;;13.68;97.98
20696;BME280;10507;52.754;13.040;2023-04-24T05:31:03;99583.25;;;13.69;97.33
20696;BME280;10507;52.754;13.040;2023-04-24T05:33:31;99692.53;;;14.35;96.30
20696;BME280;10507;52.754;13.040;2023-04-24T05:35:59;99708.28;;;15.15;93.07
20696;BME280;10507;52.754;13.040;2023-04-24T05:38:28;99686.94;;;16.08;90.14
20696;BME280;10507;52.754;13.040;2023-04-24T05:40:56;99444.38;;;16.58;85.87
20696;BME280;10507;52.754;13.040;2023-04-24T05:43:24;99395.69;;;17.16;83.12
20696;BME280;10507;52.754;13.040;2023-04-24T05:45:53;99442.78;;;17.50;81.73
20696;BME280;10507;52.754;13.040;2023-04-24T05:48:21;99224.97;;;17.42;80.64
20696;BME280;10507;52.754;13.040;2023-04-24T05:50:49;99274.28;;;17.70;80.00
20696;BME280;10507;52.754;13.040;2023-04-24T05:53:19;99297.19;;;17.66;80.11
20696;BME280;10507;52.754;13.040;2023-04-24T05:55:48;99137.31;;;17.46;79.48
20696;BME280;10507;52.754;13.040;2023-04-24T05:58:16;99392.47;;;18.12;79.32
20696;BME280;10507;52.754;13.040;2023-04-24T06:00:44;99420.56;;;18.63;77.74
20696;BME280;10507;52.754;13.040;2023-04-24T06:03:13;99378.22;;;19.15;76.18
20696;BME280;10507;52.754;13.040;2023-04-24T06:05:41;99457.91;;;20.22;73.52
20696;BME280;10507;52.754;13.040;2023-04-24T06:08:09;99308.56;;;20.72;71.25
20696;BME280;10507;52.754;13.040;2023-04-24T06:10:38;99149.16;;;21.06;69.08
20696;BME280;10507;52.754;13.040;2023-04-24T06:13:07;99286.34;;;21.08;70.28
20696;BME280;10507;52.754;13.040;2023-04-24T06:15:35;99065.91;;;20.83;70.49
20696;BME280;10507;52.754;13.040;2023-04-24T06:18:03;99206.41;;;21.42;70.04
20696;BME280;10507;52.754;13.040;2023-04-24T06:20:31;99100.63;;;21.93;67.32
20696;BME280;10507;52.754;13.040;2023-04-24T06:22:59;99117.66;;;22.17;67.55
20696;BME280;10507;52.754;13.040;2023-04-24T06:25:27;98803.22;;;21.23;68.04
20696;BME280;10507;52.754;13.040;2023-04-24T06:27:55;98825.56;;;21.04;68.62
20696;BME280;10507;52.754;13.040;2023-04-24T06:30:25;99052.28;;;21.74;68.28
20696;BME280;10507;52.754;13.040;2023-04-24T06:32:54;99054.38;;;22.08;67.06
20696;BME280;10507;52.754;13.040;2023-04-24T06:35:35;98611.09;;;21.62;65.46
20696;BME280;10507;52.754;13.040;2023-04-24T06:38:04;98820.44;;;22.10;65.93
20696;BME280;10507;52.754;13.040;2023-04-24T06:40:32;98799.75;;;22.09;65.79
20696;BME280;10507;52.754;13.040;2023-04-24T06:43:00;98444.53;;;20.91;67.16
20696;BME280;10507;52.754;13.040;2023-04-24T06:45:31;98657.34;;;20.52;69.81
20696;BME280;10507;52.754;13.040;2023-04-24T06:47:58;98799.59;;;21.16;69.10
20696;BME280;10507;52.754;13.040;2023-04-24T06:50:27;98775.72;;;21.63;66.78
20696;BME280;10507;52.754;13.040;2023-04-24T06:52:54;98853.38;;;21.78;68.04
20696;BME280;10507;52.754;13.040;2023-04-24T06:55:22;98939.53;;;22.64;65.46
20696;BME280;10507;52.754;13.040;2023-04-24T06:57:51;98635.50;;;22.79;63.53
20696;BME280;10507;52.754;13.040;2023-04-24T07:00:19;98554.91;;;22.65;63.67
20696;BME280;10507;52.754;13.040;2023-04-24T07:02:48;98713.38;;;23.42;62.22
20696;BME280;10507;52.754;13.040;2023-04-24T07:05:16;98860.66;;;24.15;61.62
20696;BME280;10507;52.754;13.040;2023-04-24T07:07:46;98882.06;;;24.45;61.23
20696;BME280;10507;52.754;13.040;2023-04-24T07:10:15;98807.34;;;24.53;60.05
20696;BME280;10507;52.754;13.040;2023-04-24T07:12:43;98304.00;;;23.41;60.08
20696;BME280;10507;52.754;13.040;2023-04-24T07:15:11;98433.31;;;23.26;61.32
20696;BME280;10507;52.754;13.040;2023-04-24T07:17:39;98466.56;;;23.48;60.19
20696;BME280;10507;52.754;13.040;2023-04-24T07:20:11;98513.81;;;23.93;60.06
20696;BME280;10507;52.754;13.040;2023-04-24T07:22:41;98575.78;;;24.18;58.98
20696;BME280;10507;52.754;13.040;2023-04-24T07:25:09;98261.41;;;23.09;59.93
20696;BME280;10507;52.754;13.040;2023-04-24T07:27:37;98340.81;;;22.79;61.05
20696;BME280;10507;52.754;13.040;2023-04-24T07:30:06;98194.69;;;22.21;60.84
20696;BME280;10507;52.754;13.040;2023-04-24T07:32:35;98315.53;;;21.24;64.31
20696;BME280;10507;52.754;13.040;2023-04-24T07:35:03;98420.28;;;20.83;65.65
20696;BME280;10507;52.754;13.040;2023-04-24T07:37:33;98576.72;;;21.82;63.31
20696;BME280;10507;52.754;13.040;2023-04-24T07:40:01;98761.53;;;22.87;62.38
20696;BME280;10507;52.754;13.040;2023-04-24T07:42:30;98555.84;;;23.19;59.27
20696;BME280;10507;52.754;13.040;2023-04-24T07:44:58;98477.44;;;23.54;57.40
20696;BME280;10507;52.754;13.040;2023-04-24T07:47:26;98384.31;;;23.71;56.26
20696;BME280;10507;52.754;13.040;2023-04-24T07:49:54;98380.09;;;23.30;57.81
20696;BME280;10507;52.754;13.040;2023-04-24T07:52:23;98374.34;;;23.51;57.11
20696;BME280;10507;52.754;13.040;2023-04-24T07:54:52;98456.50;;;23.41;58.33
20696;BME280;10507;52.754;13.040;2023-04-24T07:57:25;98357.72;;;23.21;59.14
20696;BME280;10507;52.754;13.040;2023-04-24T07:59:53;98288.69;;;22.82;58.41
20696;BME280;10507;52.754;13.040;2023-04-24T08:02:21;98304.69;;;22.52;59.20
20696;BME280;10507;52.754;13.040;2023-04-24T08:04:53;98282.50;;;22.41;58.80
20696;BME280;10507;52.754;13.040;2023-04-24T08:07:23;98192.00;;;21.94;59.28
20696;BME280;10507;52.754;13.040;2023-04-24T08:09:53;98192.50;;;20.96;60.79
20696;BME280;10507;52.754;13.040;2023-04-24T08:12:21;98230.25;;;20.22;63.20
20696;BME280;10507;52.754;13.040;2023-04-24T08:14:49;98391.91;;;19.71;66.30
20696;BME280;10507;52.754;13.040;2023-04-24T08:17:17;98572.03;;;20.33;65.84
20696;BME280;10507;52.754;13.040;2023-04-24T08:19:45;98612.66;;;20.85;65.11
20696;BME280;10507;52.754;13.040;2023-04-24T08:22:14;98512.63;;;20.75;63.97
20696;BME280;10507;52.754;13.040;2023-04-24T08:24:43;98481.94;;;20.53;64.77
20696;BME280;10507;52.754;13.040;2023-04-24T08:27:12;98451.97;;;19.97;65.76
20696;BME280;10507;52.754;13.040;2023-04-24T08:29:40;98450.72;;;19.48;67.05
20696;BME280;10507;52.754;13.040;2023-04-24T08:32:09;98555.97;;;19.13;69.00
20696;BME280;10507;52.754;13.040;2023-04-24T08:34:37;98671.00;;;19.47;69.81
20696;BME280;10507;52.754;13.040;2023-04-24T08:37:05;98652.03;;;19.70;69.00
20696;BME280;10507;52.754;13.040;2023-04-24T08:39:33;98784.34;;;20.11;69.29
20696;BME280;10507;52.754;13.040;2023-04-24T08:42:01;98605.91;;;19.78;67.46
20696;BME280;10507;52.754;13.040;2023-04-24T08:44:36;98668.47;;;19.83;68.57
20696;BME280;10507;52.754;13.040;2023-04-24T08:47:04;98679.22;;;19.77;68.21
20696;BME280;10507;52.754;13.040;2023-04-24T08:49:33;98620.34;;;19.56;67.59
20696;BME280;10507;52.754;13.040;2023-04-24T08:52:01;98622.44;;;19.07;69.27
20696;BME280;10507;52.754;13.040;2023-04-24T08:54:31;98709.97;;;19.15;69.90
20696;BME280;10507;52.754;13.040;2023-04-24T08:57:00;98664.09;;;19.21;68.88
20696;BME280;10507;52.754;13.040;2023-04-24T08:59:30;98638.66;;;19.07;68.29
20696;BME280;10507;52.754;13.040;2023-04-24T09:02:00;98678.00;;;18.95;69.07
20696;BME280;10507;52.754;13.040;2023-04-24T09:04:30;98657.78;;;18.83;69.32
20696;BME280;10507;52.754;13.040;2023-04-24T09:07:01;98698.59;;;18.96;69.22
20696;BME280;10507;52.754;13.040;2023-04-24T09:09:30;98770.03;;;19.10;69.53
20696;BME280;10507;52.754;13.040;2023-04-24T09:12:00;98815.28;;;19.24;69.54
20696;BME280;10507;52.754;13.040;2023-04-24T09:14:31;98825.41;;;19.53;69.10
20696;BME280;10507;52.754;13.040;2023-04-24T09:17:00;98792.28;;;19.75;67.98
20696;BME280;10507;52.754;13.040;2023-04-24T09:19:28;98710.16;;;19.36;68.23
20696;BME280;10507;52.754;13.040;2023-04-24T09:21:56;98660.97;;;19.09;68.43
20696;BME280;10507;52.754;13.040;2023-04-24T09:24:24;98725.56;;;19.13;69.07
20696;BME280;10507;52.754;13.040;2023-04-24T09:26:56;98772.38;;;19.13;69.79
20696;BME280;10507;52.754;13.040;2023-04-24T09:29:25;98711.13;;;18.97;69.71
20696;BME280;10507;52.754;13.040;2023-04-24T09:31:53;98749.78;;;18.58;71.35
20696;BME280;10507;52.754;13.040;2023-04-24T09:34:23;98714.19;;;18.46;70.14
20696;BME280;10507;52.754;13.040;2023-04-24T09:36:52;98784.03;;;18.74;69.93
20696;BME280;10507;52.754;13.040;2023-04-24T09:39:20;98704.19;;;18.55;69.92
20696;BME280;10507;52.754;13.040;2023-04-24T09:41:50;98852.66;;;18.81;71.37
20696;BME280;10507;52.754;13.040;2023-04-24T09:44:43;98840.41;;;19.02;70.86
20696;BME280;10507;52.754;13.040;2023-04-24T09:47:11;98870.81;;;19.43;69.34
20696;BME280;10507;52.754;13.040;2023-04-24T09:49:40;98880.25;;;19.47;69.96
20696;BME280;10507;52.754;13.040;2023-04-24T09:52:11;98829.31;;;19.51;69.53
20696;BME280;10507;52.754;13.040;2023-04-24T09:54:39;98727.22;;;19.37;68.04
20696;BME280;10507;52.754;13.040;2023-04-24T09:57:07;98740.72;;;19.22;68.67
20696;BME280;10507;52.754;13.040;2023-04-24T09:59:41;98674.47;;;18.95;68.44
20696;BME280;10507;52.754;13.040;2023-04-24T10:02:17;98634.50;;;18.74;68.19
20696;BME280;10507;52.754;13.040;2023-04-24T10:04:54;98669.44;;;18.52;68.78
20696;BME280;10507;52.754;13.040;2023-04-24T10:07:25;98680.88;;;18.15;70.43
20696;BME280;10507;52.754;13.040;2023-04-24T10:09:53;98674.22;;;17.86;71.29
20696;BME280;10507;52.754;13.040;2023-04-24T10:12:22;98719.78;;;17.64;72.76
20696;BME280;10507;52.754;13.040;2023-04-24T10:14:52;98743.38;;;17.54;72.76
20696;BME280;10507;52.754;13.040;2023-04-24T10:17:20;98740.16;;;17.34;73.41
20696;BME280;10507;52.754;13.040;2023-04-24T10:19:51;98816.75;;;17.50;73.21
20696;BME280;10507;52.754;13.040;2023-04-24T10:22:20;98807.97;;;17.48;73.62
20696;BME280;10507;52.754;13.040;2023-04-24T10:24:49;98846.97;;;17.70;73.11
20696;BME280;10507;52.754;13.040;2023-04-24T10:27:17;98768.97;;;17.25;73.83
20696;BME280;10507;52.754;13.040;2023-04-24T10:29:49;98870.72;;;17.58;74.70
20696;BME280;10507;52.754;13.040;2023-04-24T10:32:20;98848.97;;;17.67;73.52
20696;BME280;10507;52.754;13.040;2023-04-24T10:34:48;98904.19;;;17.81;73.42
20696;BME280;10507;52.754;13.040;2023-04-24T10:37:18;98967.88;;;18.25;73.65
20696;BME280;10507;52.754;13.040;2023-04-24T10:39:47;98961.28;;;18.19;73.93
20696;BME280;10507;52.754;13.040;2023-04-24T10:42:17;98979.91;;;18.39;73.10
20696;BME280;10507;52.754;13.040;2023-04-24T10:44:48;98981.25;;;18.59;72.74
20696;BME280;10507;52.754;13.040;2023-04-24T10:47:17;98963.66;;;18.72;72.43
20696;BME280;10507;52.754;13.040;2023-04-24T10:49:45;98903.69;;;18.52;71.67
20696;BME280;10507;52.754;13.040;2023-04-24T10:52:14;98881.94;;;18.04;73.55
20696;BME280;10507;52.754;13.040;2023-04-24T10:54:45;98971.72;;;17.90;75.76
20696;BME280;10507;52.754;13.040;2023-04-24T10:57:28;99046.16;;;17.66;77.80
20696;BME280;10507;52.754;13.040;2023-04-24T11:00:26;99093.38;;;17.62;79.08
20696;BME280;10507;52.754;13.040;2023-04-24T11:02:54;99082.41;;;17.29;80.14
20696;BME280;10507;52.754;13.040;2023-04-24T11:05:49;99152.56;;;17.11;82.33
20696;BME280;10507;52.754;13.040;2023-04-24T11:08:23;99246.53;;;17.06;84.55
20696;BME280;10507;52.754;13.040;2023-04-24T11:11:01;99261.19;;;17.03;85.38
20696;BME280;10507;52.754;13.040;2023-04-24T11:14:06;99379.81;;;17.59;87.37
20696;BME280;10507;52.754;13.040;2023-04-24T11:16:44;99393.44;;;18.29;86.30
20696;BME280;10507;52.754;13.040;2023-04-24T11:19:22;99284.41;;;18.38;82.48
20696;BME280;10507;52.754;13.040;2023-04-24T11:21:57;99232.00;;;18.65;79.87
20696;BME280;10507;52.754;13.040;2023-04-24T11:24:32;99181.00;;;18.79;78.55
20696;BME280;10507;52.754;13.040;2023-04-24T11:27:11;99058.25;;;18.39;77.55
20696;BME280;10507;52.754;13.040;2023-04-24T11:29:42;99039.28;;;18.14;77.45
20696;BME280;10507;52.754;13.040;2023-04-24T11:32:24;99013.56;;;17.85;78.05
20696;BME280;10507;52.754;13.040;2023-04-24T11:34:54;99131.03;;;17.90;79.24
20696;BME280;10507;52.754;13.040;2023-04-24T11:37:23;99110.66;;;17.69;79.89
20696;BME280;10507;52.754;13.040;2023-04-24T11:39:52;99100.69;;;17.70;79.20
20696;BME280;10507;52.754;13.040;2023-04-24T11:42:22;99146.25;;;17.73;79.89
20696;BME280;10507;52.754;13.040;2023-04-24T11:44:56;99133.22;;;17.68;79.51
20696;BME280;10507;52.754;13.040;2023-04-24T11:47:28;99061.13;;;17.52;78.31
20696;BME280;10507;52.754;13.040;2023-04-24T11:49:57;99049.66;;;17.84;76.60
20696;BME280;10507;52.754;13.040;2023-04-24T11:52:27;99087.25;;;18.20;76.00
20696;BME280;10507;52.754;13.040;2023-04-24T11:54:55;99067.47;;;17.77;77.64
20696;BME280;10507;52.754;13.040;2023-04-24T11:57:25;99037.75;;;17.69;77.63
20696;BME280;10507;52.754;13.040;2023-04-24T11:59:55;99056.16;;;17.39;78.53
20696;BME280;10507;52.754;13.040;2023-04-24T12:02:24;99088.31;;;17.33;79.56
20696;BME280;10507;52.754;13.040;2023-04-24T12:04:53;99140.91;;;17.29;80.52
20696;BME280;10507;52.754;13.040;2023-04-24T12:07:22;99210.03;;;17.12;82.17
20696;BME280;10507;52.754;13.040;2023-04-24T12:09:55;99236.19;;;16.83;83.40
20696;BME280;10507;52.754;13.040;2023-04-24T12:12:27;99132.47;;;15.87;84.15
20696;BME280;10507;52.754;13.040;2023-04-24T12:14:56;99258.03;;;15.29;87.87
20696;BME280;10507;52.754;13.040;2023-04-24T12:17:26;99232.47;;;14.75;87.96
20696;BME280;10507;52.754;13.040;2023-04-24T12:19:58;99267.59;;;14.52;88.19
20696;BME280;10507;52.754;13.040;2023-04-24T12:22:27;99386.41;;;14.87;91.01
20696;BME280;10507;52.754;13.040;2023-04-24T12:24:59;99481.06;;;15.31;93.04
20696;BME280;10507;52.754;13.040;2023-04-24T12:27:32;99513.72;;;15.88;93.21
20696;BME280;10507;52.754;13.040;2023-04-24T12:30:02;99521.53;;;16.20;92.80
20696;BME280;10507;52.754;13.040;2023-04-24T12:32:31;99458.88;;;16.47;90.18
20696;BME280;10507;52.754;13.040;2023-04-24T12:34:59;99481.97;;;16.69;90.62
20696;BME280;10507;52.754;13.040;2023-04-24T12:37:33;99292.25;;;16.42;85.64
20696;BME280;10507;52.754;13.040;2023-04-24T12:40:05;99271.03;;;16.39;85.14
20696;BME280;10507;52.754;13.040;2023-04-24T12:42:41;99257.81;;;16.46;84.08
20696;BME280;10507;52.754;13.040;2023-04-24T12:45:12;99280.19;;;16.47;84.23
20696;BME280;10507;52.754;13.040;2023-04-24T12:47:41;99368.31;;;16.74;85.07
20696;BME280;10507;52.754;13.040;2023-04-24T12:50:10;99307.56;;;16.89;83.51
20696;BME280;10507;52.754;13.040;2023-04-24T12:52:39;99160.81;;;16.92;79.27
20696;BME280;10507;52.754;13.040;2023-04-24T12:55:09;99178.28;;;16.88;79.78
20696;BME280;10507;52.754;13.040;2023-04-24T12:57:40;99107.91;;;16.91;77.95
20696;BME280;10507;52.754;13.040;2023-04-24T13:00:08;99164.06;;;16.95;78.91